sensor_id;sensor_type;location;lat;lon;timestamp;P1;durP1;ratioP1;P2;durP2;ratioP2
62933;SDS011;49038;47.600;19.242;2023-05-16T00:02:54;3.08;;;2.37;;
62933;SDS011;49038;47.600;19.242;2023-05-16T00:05:56;2.83;;;2.25;;
62933;SDS011;49038;47.600;19.242;2023-05-16T00:08:58;3.85;;;2.60;;
62933;SDS011;49038;47.600;19.242;2023-05-16T00:12:01;2.80;;;2.10;;
62933;SDS011;49038;47.600;19.242;2023-05-16T00:15:03;2.42;;;1.98;;
62933;SDS011;49038;47.600;19.242;2023-05-16T00:18:07;2.60;;;2.25;;
62933;SDS011;49038;47.600;19.242;2023-05-16T00:21:09;4.18;;;2.33;;
62933;SDS011;49038;47.600;19.242;2023-05-16T00:24:12;4.05;;;2.50;;
62933;SDS011;49038;47.600;19.242;2023-05-16T00:27:14;6.05;;;3.72;;
62933;SDS011;49038;47.600;19.242;2023-05-16T00:30:16;6.22;;;4.03;;
62933;SDS011;49038;47.600;19.242;2023-05-16T00:33:19;8.32;;;3.90;;
62933;SDS011;49038;47.600;19.242;2023-05-16T00:36:21;5.15;;;3.85;;
62933;SDS011;49038;47.600;19.242;2023-05-16T00:39:24;6.75;;;3.50;;
62933;SDS011;49038;47.600;19.242;2023-05-16T00:42:27;3.35;;;2.70;;
62933;SDS011;49038;47.600;19.242;2023-05-16T00:45:29;5.35;;;2.22;;
62933;SDS011;49038;47.600;19.242;2023-05-16T00:48:31;4.10;;;2.45;;
62933;SDS011;49038;47.600;19.242;2023-05-16T00:51:34;5.75;;;2.40;;
62933;SDS011;49038;47.600;19.242;2023-05-16T00:54:37;8.05;;;3.28;;
62933;SDS011;49038;47.600;19.242;2023-05-16T00:57:39;3.08;;;2.50;;
62933;SDS011;49038;47.600;19.242;2023-05-16T01:00:42;4.03;;;2.47;;
62933;SDS011;49038;47.600;19.242;2023-05-16T01:03:49;3.87;;;2.80;;
62933;SDS011;49038;47.600;19.242;2023-05-16T01:06:52;3.55;;;2.70;;
62933;SDS011;49038;47.600;19.242;2023-05-16T01:09:54;4.20;;;2.75;;
62933;SDS011;49038;47.600;19.242;2023-05-16T01:13:14;4.85;;;2.60;;
62933;SDS011;49038;47.600;19.242;2023-05-16T01:26:21;2.53;;;1.83;;
62933;SDS011;49038;47.600;19.242;2023-05-16T01:29:24;11.98;;;3.70;;
62933;SDS011;49038;47.600;19.242;2023-05-16T01:32:27;11.52;;;3.50;;
62933;SDS011;49038;47.600;19.242;2023-05-16T01:35:29;5.62;;;2.75;;
62933;SDS011;49038;47.600;19.242;2023-05-16T01:41:53;3.85;;;2.65;;
62933;SDS011;49038;47.600;19.242;2023-05-16T01:45:01;4.28;;;2.72;;
62933;SDS011;49038;47.600;19.242;2023-05-16T01:48:10;4.20;;;2.37;;
62933;SDS011;49038;47.600;19.242;2023-05-16T01:51:16;2.83;;;1.80;;
62933;SDS011;49038;47.600;19.242;2023-05-16T01:54:20;7.30;;;3.20;;
62933;SDS011;49038;47.600;19.242;2023-05-16T01:57:26;3.83;;;1.95;;
62933;SDS011;49038;47.600;19.242;2023-05-16T02:00:29;3.92;;;2.33;;
62933;SDS011;49038;47.600;19.242;2023-05-16T02:03:33;2.28;;;2.08;;
62933;SDS011;49038;47.600;19.242;2023-05-16T02:06:35;1.70;;;1.60;;
62933;SDS011;49038;47.600;19.242;2023-05-16T02:09:38;1.90;;;1.80;;
62933;SDS011;49038;47.600;19.242;2023-05-16T02:12:40;2.78;;;2.47;;
62933;SDS011;49038;47.600;19.242;2023-05-16T02:15:43;2.80;;;2.53;;
62933;SDS011;49038;47.600;19.242;2023-05-16T02:18:45;4.37;;;2.20;;
62933;SDS011;49038;47.600;19.242;2023-05-16T02:21:47;2.03;;;1.70;;
62933;SDS011;49038;47.600;19.242;2023-05-16T02:24:49;2.40;;;1.70;;
62933;SDS011;49038;47.600;19.242;2023-05-16T02:27:52;2.55;;;2.22;;
62933;SDS011;49038;47.600;19.242;2023-05-16T02:30:57;4.40;;;2.83;;
62933;SDS011;49038;47.600;19.242;2023-05-16T02:34:00;2.75;;;2.17;;
62933;SDS011;49038;47.600;19.242;2023-05-16T02:37:03;5.12;;;2.70;;
62933;SDS011;49038;47.600;19.242;2023-05-16T02:40:06;2.80;;;2.40;;
62933;SDS011;49038;47.600;19.242;2023-05-16T02:43:08;3.50;;;2.35;;
62933;SDS011;49038;47.600;19.242;2023-05-16T02:46:26;3.47;;;2.40;;
62933;SDS011;49038;47.600;19.242;2023-05-16T02:49:33;2.25;;;2.03;;
62933;SDS011;49038;47.600;19.242;2023-05-16T02:52:35;2.72;;;2.25;;
62933;SDS011;49038;47.600;19.242;2023-05-16T02:55:37;2.90;;;2.40;;
62933;SDS011;49038;47.600;19.242;2023-05-16T02:58:40;3.80;;;2.10;;
62933;SDS011;49038;47.600;19.242;2023-05-16T03:01:43;3.15;;;2.37;;
62933;SDS011;49038;47.600;19.242;2023-05-16T03:04:45;4.62;;;1.92;;
62933;SDS011;49038;47.600;19.242;2023-05-16T03:07:48;2.40;;;2.00;;
62933;SDS011;49038;47.600;19.242;2023-05-16T03:10:50;2.15;;;1.87;;
62933;SDS011;49038;47.600;19.242;2023-05-16T03:13:52;2.78;;;2.45;;
62933;SDS011;49038;47.600;19.242;2023-05-16T03:16:54;3.42;;;2.40;;
62933;SDS011;49038;47.600;19.242;2023-05-16T03:19:56;3.53;;;2.72;;
62933;SDS011;49038;47.600;19.242;2023-05-16T03:22:59;4.87;;;2.33;;
62933;SDS011;49038;47.600;19.242;2023-05-16T03:26:01;4.85;;;2.40;;
62933;SDS011;49038;47.600;19.242;2023-05-16T03:29:03;3.08;;;2.25;;
62933;SDS011;49038;47.600;19.242;2023-05-16T03:32:06;4.30;;;2.05;;
62933;SDS011;49038;47.600;19.242;2023-05-16T03:35:08;2.90;;;2.25;;
62933;SDS011;49038;47.600;19.242;2023-05-16T03:38:12;2.55;;;1.83;;
62933;SDS011;49038;47.600;19.242;2023-05-16T03:41:15;2.05;;;1.77;;
62933;SDS011;49038;47.600;19.242;2023-05-16T03:44:17;2.60;;;2.17;;
62933;SDS011;49038;47.600;19.242;2023-05-16T03:47:20;2.47;;;2.00;;
62933;SDS011;49038;47.600;19.242;2023-05-16T03:50:22;3.80;;;2.62;;
62933;SDS011;49038;47.600;19.242;2023-05-16T03:53:24;3.67;;;2.10;;
62933;SDS011;49038;47.600;19.242;2023-05-16T03:56:26;2.42;;;1.80;;
62933;SDS011;49038;47.600;19.242;2023-05-16T03:59:28;4.57;;;1.92;;
62933;SDS011;49038;47.600;19.242;2023-05-16T04:02:31;3.95;;;2.20;;
62933;SDS011;49038;47.600;19.242;2023-05-16T04:05:33;4.25;;;2.65;;
62933;SDS011;49038;47.600;19.242;2023-05-16T04:08:36;2.97;;;2.30;;
62933;SDS011;49038;47.600;19.242;2023-05-16T04:11:40;3.60;;;1.85;;
62933;SDS011;49038;47.600;19.242;2023-05-16T04:14:42;2.55;;;1.85;;
62933;SDS011;49038;47.600;19.242;2023-05-16T04:17:44;3.45;;;2.40;;
62933;SDS011;49038;47.600;19.242;2023-05-16T04:20:47;2.67;;;1.80;;
62933;SDS011;49038;47.600;19.242;2023-05-16T04:23:49;10.95;;;2.42;;
62933;SDS011;49038;47.600;19.242;2023-05-16T04:26:51;2.00;;;1.55;;
62933;SDS011;49038;47.600;19.242;2023-05-16T04:29:54;1.60;;;1.33;;
62933;SDS011;49038;47.600;19.242;2023-05-16T04:32:57;2.87;;;2.28;;
62933;SDS011;49038;47.600;19.242;2023-05-16T04:36:00;3.65;;;3.03;;
62933;SDS011;49038;47.600;19.242;2023-05-16T04:39:02;3.83;;;1.67;;
62933;SDS011;49038;47.600;19.242;2023-05-16T04:42:05;2.75;;;1.42;;
62933;SDS011;49038;47.600;19.242;2023-05-16T04:45:07;2.33;;;1.95;;
62933;SDS011;49038;47.600;19.242;2023-05-16T04:48:12;1.77;;;1.67;;
62933;SDS011;49038;47.600;19.242;2023-05-16T04:51:14;1.60;;;1.50;;
62933;SDS011;49038;47.600;19.242;2023-05-16T04:54:17;2.25;;;1.75;;
62933;SDS011;49038;47.600;19.242;2023-05-16T04:57:19;2.83;;;2.03;;
62933;SDS011;49038;47.600;19.242;2023-05-16T05:00:21;2.15;;;1.70;;
62933;SDS011;49038;47.600;19.242;2023-05-16T05:03:23;1.70;;;1.30;;
62933;SDS011;49038;47.600;19.242;2023-05-16T05:06:26;2.40;;;1.67;;
62933;SDS011;49038;47.600;19.242;2023-05-16T05:09:28;1.45;;;1.35;;
62933;SDS011;49038;47.600;19.242;2023-05-16T05:12:31;2.22;;;1.65;;
62933;SDS011;49038;47.600;19.242;2023-05-16T05:15:33;1.80;;;1.60;;
62933;SDS011;49038;47.600;19.242;2023-05-16T05:18:35;6.47;;;2.03;;
62933;SDS011;49038;47.600;19.242;2023-05-16T05:21:37;2.83;;;2.10;;
62933;SDS011;49038;47.600;19.242;2023-05-16T05:24:40;3.60;;;2.12;;
62933;SDS011;49038;47.600;19.242;2023-05-16T05:27:42;2.45;;;2.10;;
62933;SDS011;49038;47.600;19.242;2023-05-16T05:30:44;3.15;;;2.30;;
62933;SDS011;49038;47.600;19.242;2023-05-16T05:33:49;2.50;;;1.83;;
62933;SDS011;49038;47.600;19.242;2023-05-16T05:36:51;5.78;;;2.42;;
62933;SDS011;49038;47.600;19.242;2023-05-16T05:39:53;4.07;;;2.67;;
62933;SDS011;49038;47.600;19.242;2023-05-16T05:42:55;4.00;;;2.53;;
62933;SDS011;49038;47.600;19.242;2023-05-16T05:45:58;3.17;;;2.55;;
62933;SDS011;49038;47.600;19.242;2023-05-16T05:49:00;4.20;;;2.62;;
62933;SDS011;49038;47.600;19.242;2023-05-16T05:52:02;3.95;;;2.53;;
62933;SDS011;49038;47.600;19.242;2023-05-16T05:55:05;2.80;;;2.33;;
62933;SDS011;49038;47.600;19.242;2023-05-16T05:58:07;3.45;;;2.80;;
62933;SDS011;49038;47.600;19.242;2023-05-16T06:01:10;4.22;;;3.03;;
62933;SDS011;49038;47.600;19.242;2023-05-16T06:04:13;3.33;;;2.70;;
62933;SDS011;49038;47.600;19.242;2023-05-16T06:07:15;4.25;;;2.95;;
62933;SDS011;49038;47.600;19.242;2023-05-16T06:10:19;4.25;;;2.87;;
62933;SDS011;49038;47.600;19.242;2023-05-16T06:13:21;4.70;;;3.50;;
62933;SDS011;49038;47.600;19.242;2023-05-16T06:16:24;4.80;;;2.62;;
62933;SDS011;49038;47.600;19.242;2023-05-16T06:19:26;3.83;;;2.70;;
62933;SDS011;49038;47.600;19.242;2023-05-16T06:22:29;4.70;;;2.80;;
62933;SDS011;49038;47.600;19.242;2023-05-16T06:25:32;2.67;;;2.03;;
62933;SDS011;49038;47.600;19.242;2023-05-16T06:28:34;2.83;;;2.03;;
62933;SDS011;49038;47.600;19.242;2023-05-16T06:31:36;3.20;;;2.10;;
62933;SDS011;49038;47.600;19.242;2023-05-16T06:34:38;4.30;;;2.12;;
62933;SDS011;49038;47.600;19.242;2023-05-16T06:37:40;2.87;;;1.75;;
62933;SDS011;49038;47.600;19.242;2023-05-16T06:40:44;3.65;;;2.62;;
62933;SDS011;49038;47.600;19.242;2023-05-16T06:43:46;3.67;;;2.30;;
62933;SDS011;49038;47.600;19.242;2023-05-16T06:46:48;2.53;;;2.12;;
62933;SDS011;49038;47.600;19.242;2023-05-16T06:49:51;4.12;;;2.35;;
62933;SDS011;49038;47.600;19.242;2023-05-16T06:52:53;3.58;;;2.50;;
62933;SDS011;49038;47.600;19.242;2023-05-16T06:55:56;2.15;;;1.95;;
62933;SDS011;49038;47.600;19.242;2023-05-16T06:58:58;2.37;;;2.15;;
62933;SDS011;49038;47.600;19.242;2023-05-16T07:02:02;3.55;;;2.42;;
62933;SDS011;49038;47.600;19.242;2023-05-16T07:05:05;4.80;;;2.80;;
62933;SDS011;49038;47.600;19.242;2023-05-16T07:08:08;3.55;;;2.80;;
62933;SDS011;49038;47.600;19.242;2023-05-16T07:11:13;4.12;;;2.72;;
62933;SDS011;49038;47.600;19.242;2023-05-16T07:14:15;3.53;;;2.53;;
62933;SDS011;49038;47.600;19.242;2023-05-16T07:17:17;4.40;;;2.72;;
62933;SDS011;49038;47.600;19.242;2023-05-16T07:20:21;8.05;;;3.67;;
62933;SDS011;49038;47.600;19.242;2023-05-16T07:23:23;6.75;;;3.67;;
62933;SDS011;49038;47.600;19.242;2023-05-16T07:26:25;7.15;;;3.97;;
62933;SDS011;49038;47.600;19.242;2023-05-16T07:29:27;6.72;;;3.95;;
62933;SDS011;49038;47.600;19.242;2023-05-16T07:32:31;8.55;;;4.68;;
62933;SDS011;49038;47.600;19.242;2023-05-16T07:35:33;8.55;;;4.45;;
62933;SDS011;49038;47.600;19.242;2023-05-16T07:38:35;7.62;;;4.55;;
62933;SDS011;49038;47.600;19.242;2023-05-16T07:41:38;10.40;;;4.90;;
62933;SDS011;49038;47.600;19.242;2023-05-16T07:44:40;10.23;;;5.20;;
62933;SDS011;49038;47.600;19.242;2023-05-16T07:47:42;7.43;;;4.15;;
62933;SDS011;49038;47.600;19.242;2023-05-16T07:50:45;12.05;;;3.80;;
62933;SDS011;49038;47.600;19.242;2023-05-16T07:53:47;9.73;;;5.22;;
62933;SDS011;49038;47.600;19.242;2023-05-16T07:56:49;8.05;;;4.93;;
62933;SDS011;49038;47.600;19.242;2023-05-16T07:59:51;6.78;;;3.42;;
62933;SDS011;49038;47.600;19.242;2023-05-16T08:02:54;5.68;;;3.62;;
62933;SDS011;49038;47.600;19.242;2023-05-16T08:05:56;3.70;;;2.20;;
62933;SDS011;49038;47.600;19.242;2023-05-16T08:08:59;4.90;;;2.60;;
62933;SDS011;49038;47.600;19.242;2023-05-16T08:12:01;4.15;;;2.30;;
62933;SDS011;49038;47.600;19.242;2023-05-16T08:15:05;2.78;;;2.10;;
62933;SDS011;49038;47.600;19.242;2023-05-16T08:18:11;2.10;;;1.80;;
62933;SDS011;49038;47.600;19.242;2023-05-16T08:21:16;1.05;;;1.00;;
62933;SDS011;49038;47.600;19.242;2023-05-16T08:24:18;3.60;;;1.87;;
62933;SDS011;49038;47.600;19.242;2023-05-16T08:27:20;1.75;;;1.40;;
62933;SDS011;49038;47.600;19.242;2023-05-16T08:30:22;2.20;;;1.52;;
62933;SDS011;49038;47.600;19.242;2023-05-16T08:33:24;1.85;;;1.40;;
62933;SDS011;49038;47.600;19.242;2023-05-16T08:36:27;1.90;;;1.45;;
62933;SDS011;49038;47.600;19.242;2023-05-16T08:39:31;1.95;;;1.35;;
62933;SDS011;49038;47.600;19.242;2023-05-16T08:42:34;2.35;;;1.85;;
62933;SDS011;49038;47.600;19.242;2023-05-16T08:45:36;4.10;;;2.58;;
62933;SDS011;49038;47.600;19.242;2023-05-16T08:48:39;1.30;;;1.20;;
62933;SDS011;49038;47.600;19.242;2023-05-16T08:51:42;1.65;;;1.45;;
62933;SDS011;49038;47.600;19.242;2023-05-16T08:54:44;2.80;;;2.15;;
62933;SDS011;49038;47.600;19.242;2023-05-16T08:57:56;2.55;;;1.75;;
62933;SDS011;49038;47.600;19.242;2023-05-16T09:00:58;3.00;;;1.95;;
62933;SDS011;49038;47.600;19.242;2023-05-16T09:04:06;1.67;;;1.25;;
62933;SDS011;49038;47.600;19.242;2023-05-16T09:07:09;4.75;;;2.17;;
62933;SDS011;49038;47.600;19.242;2023-05-16T09:10:12;4.12;;;2.40;;
62933;SDS011;49038;47.600;19.242;2023-05-16T09:13:14;2.78;;;1.50;;
62933;SDS011;49038;47.600;19.242;2023-05-16T09:16:18;2.65;;;1.80;;
62933;SDS011;49038;47.600;19.242;2023-05-16T09:19:22;2.45;;;1.73;;
62933;SDS011;49038;47.600;19.242;2023-05-16T09:22:24;2.22;;;1.87;;
62933;SDS011;49038;47.600;19.242;2023-05-16T09:25:27;2.83;;;2.35;;
62933;SDS011;49038;47.600;19.242;2023-05-16T09:28:33;2.45;;;2.20;;
62933;SDS011;49038;47.600;19.242;2023-05-16T09:31:35;5.05;;;2.22;;
62933;SDS011;49038;47.600;19.242;2023-05-16T09:34:46;2.72;;;1.83;;
62933;SDS011;49038;47.600;19.242;2023-05-16T09:37:50;2.72;;;2.22;;
62933;SDS011;49038;47.600;19.242;2023-05-16T09:40:55;3.37;;;2.30;;
62933;SDS011;49038;47.600;19.242;2023-05-16T09:43:58;6.85;;;2.70;;
62933;SDS011;49038;47.600;19.242;2023-05-16T09:47:00;4.68;;;2.90;;
62933;SDS011;49038;47.600;19.242;2023-05-16T09:50:02;4.07;;;2.80;;
62933;SDS011;49038;47.600;19.242;2023-05-16T09:53:05;3.85;;;2.97;;
62933;SDS011;49038;47.600;19.242;2023-05-16T09:56:12;4.12;;;2.97;;
62933;SDS011;49038;47.600;19.242;2023-05-16T09:59:15;3.55;;;2.65;;
62933;SDS011;49038;47.600;19.242;2023-05-16T10:02:17;6.47;;;3.37;;
62933;SDS011;49038;47.600;19.242;2023-05-16T10:05:20;6.05;;;4.05;;
62933;SDS011;49038;47.600;19.242;2023-05-16T10:08:23;7.85;;;3.55;;
62933;SDS011;49038;47.600;19.242;2023-05-16T10:11:27;4.37;;;3.42;;
62933;SDS011;49038;47.600;19.242;2023-05-16T10:14:32;7.05;;;4.25;;
62933;SDS011;49038;47.600;19.242;2023-05-16T10:17:35;7.55;;;4.45;;
62933;SDS011;49038;47.600;19.242;2023-05-16T10:20:41;7.70;;;5.00;;
62933;SDS011;49038;47.600;19.242;2023-05-16T10:23:46;3.50;;;2.87;;
62933;SDS011;49038;47.600;19.242;2023-05-16T10:26:49;5.25;;;3.87;;
62933;SDS011;49038;47.600;19.242;2023-05-16T10:29:53;6.12;;;4.15;;
62933;SDS011;49038;47.600;19.242;2023-05-16T10:32:56;5.15;;;3.42;;
62933;SDS011;49038;47.600;19.242;2023-05-16T10:35:58;5.65;;;3.40;;
62933;SDS011;49038;47.600;19.242;2023-05-16T10:39:01;6.65;;;3.53;;
62933;SDS011;49038;47.600;19.242;2023-05-16T10:42:04;4.15;;;3.28;;
62933;SDS011;49038;47.600;19.242;2023-05-16T10:45:08;4.45;;;3.25;;
62933;SDS011;49038;47.600;19.242;2023-05-16T10:48:26;3.95;;;2.80;;
62933;SDS011;49038;47.600;19.242;2023-05-16T10:51:34;4.07;;;3.40;;
62933;SDS011;49038;47.600;19.242;2023-05-16T10:54:41;2.85;;;2.03;;
62933;SDS011;49038;47.600;19.242;2023-05-16T10:57:44;6.72;;;2.65;;
62933;SDS011;49038;47.600;19.242;2023-05-16T11:00:47;3.75;;;2.92;;
62933;SDS011;49038;47.600;19.242;2023-05-16T11:06:59;3.87;;;2.65;;
62933;SDS011;49038;47.600;19.242;2023-05-16T11:10:09;5.07;;;3.62;;
62933;SDS011;49038;47.600;19.242;2023-05-16T11:13:17;4.12;;;3.20;;
62933;SDS011;49038;47.600;19.242;2023-05-16T11:16:25;4.47;;;3.40;;
62933;SDS011;49038;47.600;19.242;2023-05-16T11:19:29;4.35;;;2.53;;
62933;SDS011;49038;47.600;19.242;2023-05-16T11:22:35;6.18;;;2.70;;
62933;SDS011;49038;47.600;19.242;2023-05-16T11:25:53;6.90;;;3.65;;
62933;SDS011;49038;47.600;19.242;2023-05-16T11:28:56;7.60;;;3.17;;
62933;SDS011;49038;47.600;19.242;2023-05-16T11:32:00;6.72;;;4.60;;
62933;SDS011;49038;47.600;19.242;2023-05-16T11:35:05;3.15;;;2.55;;
62933;SDS011;49038;47.600;19.242;2023-05-16T11:38:13;6.62;;;3.67;;
62933;SDS011;49038;47.600;19.242;2023-05-16T11:41:19;3.72;;;3.30;;
62933;SDS011;49038;47.600;19.242;2023-05-16T11:44:23;3.70;;;2.72;;
62933;SDS011;49038;47.600;19.242;2023-05-16T11:47:25;6.18;;;4.00;;
62933;SDS011;49038;47.600;19.242;2023-05-16T11:50:28;2.40;;;1.92;;
62933;SDS011;49038;47.600;19.242;2023-05-16T11:53:31;6.87;;;3.62;;
62933;SDS011;49038;47.600;19.242;2023-05-16T11:56:34;7.10;;;4.05;;
62933;SDS011;49038;47.600;19.242;2023-05-16T11:59:37;6.37;;;4.00;;
62933;SDS011;49038;47.600;19.242;2023-05-16T12:02:39;7.72;;;3.62;;
62933;SDS011;49038;47.600;19.242;2023-05-16T12:05:48;4.57;;;3.17;;
62933;SDS011;49038;47.600;19.242;2023-05-16T12:08:53;8.27;;;3.37;;
62933;SDS011;49038;47.600;19.242;2023-05-16T12:11:55;3.58;;;3.08;;
62933;SDS011;49038;47.600;19.242;2023-05-16T12:14:57;2.97;;;2.60;;
62933;SDS011;49038;47.600;19.242;2023-05-16T12:18:00;7.25;;;3.30;;
62933;SDS011;49038;47.600;19.242;2023-05-16T12:21:03;6.35;;;3.28;;
62933;SDS011;49038;47.600;19.242;2023-05-16T12:24:09;2.12;;;1.87;;
62933;SDS011;49038;47.600;19.242;2023-05-16T12:27:20;4.07;;;3.17;;
62933;SDS011;49038;47.600;19.242;2023-05-16T12:30:23;2.87;;;2.30;;
62933;SDS011;49038;47.600;19.242;2023-05-16T12:33:27;6.05;;;3.40;;
62933;SDS011;49038;47.600;19.242;2023-05-16T12:36:30;4.93;;;3.72;;
62933;SDS011;49038;47.600;19.242;2023-05-16T12:39:37;5.85;;;3.22;;
62933;SDS011;49038;47.600;19.242;2023-05-16T12:42:42;2.75;;;2.20;;
62933;SDS011;49038;47.600;19.242;2023-05-16T12:46:03;3.40;;;2.72;;
62933;SDS011;49038;47.600;19.242;2023-05-16T12:49:11;4.55;;;2.53;;
62933;SDS011;49038;47.600;19.242;2023-05-16T12:52:17;1.85;;;1.73;;
62933;SDS011;49038;47.600;19.242;2023-05-16T12:55:24;2.28;;;1.80;;
62933;SDS011;49038;47.600;19.242;2023-05-16T12:58:27;2.62;;;2.03;;
62933;SDS011;49038;47.600;19.242;2023-05-16T13:01:31;6.43;;;2.50;;
62933;SDS011;49038;47.600;19.242;2023-05-16T13:04:34;4.50;;;2.55;;
62933;SDS011;49038;47.600;19.242;2023-05-16T13:07:37;3.97;;;2.05;;
62933;SDS011;49038;47.600;19.242;2023-05-16T13:10:43;6.43;;;1.80;;
62933;SDS011;49038;47.600;19.242;2023-05-16T13:13:45;7.25;;;2.15;;
62933;SDS011;49038;47.600;19.242;2023-05-16T13:16:47;5.82;;;2.60;;
62933;SDS011;49038;47.600;19.242;2023-05-16T13:19:49;3.37;;;2.28;;
62933;SDS011;49038;47.600;19.242;2023-05-16T13:22:52;2.53;;;1.90;;
62933;SDS011;49038;47.600;19.242;2023-05-16T13:25:54;2.78;;;2.12;;
62933;SDS011;49038;47.600;19.242;2023-05-16T13:28:56;2.85;;;1.90;;
62933;SDS011;49038;47.600;19.242;2023-05-16T13:32:01;11.52;;;1.65;;
62933;SDS011;49038;47.600;19.242;2023-05-16T13:35:03;8.70;;;2.67;;
62933;SDS011;49038;47.600;19.242;2023-05-16T13:38:06;6.12;;;1.80;;
62933;SDS011;49038;47.600;19.242;2023-05-16T13:41:09;5.60;;;1.90;;
62933;SDS011;49038;47.600;19.242;2023-05-16T13:44:11;3.28;;;2.15;;
62933;SDS011;49038;47.600;19.242;2023-05-16T13:47:13;3.53;;;2.20;;
62933;SDS011;49038;47.600;19.242;2023-05-16T13:50:16;8.75;;;2.28;;
62933;SDS011;49038;47.600;19.242;2023-05-16T13:53:18;2.78;;;2.22;;
62933;SDS011;49038;47.600;19.242;2023-05-16T13:56:20;1.90;;;1.55;;
62933;SDS011;49038;47.600;19.242;2023-05-16T13:59:23;2.95;;;1.65;;
62933;SDS011;49038;47.600;19.242;2023-05-16T14:02:45;2.08;;;1.48;;
62933;SDS011;49038;47.600;19.242;2023-05-16T14:05:47;6.22;;;2.55;;
62933;SDS011;49038;47.600;19.242;2023-05-16T14:08:53;1.92;;;1.77;;
62933;SDS011;49038;47.600;19.242;2023-05-16T14:11:55;5.25;;;2.40;;
62933;SDS011;49038;47.600;19.242;2023-05-16T14:14:57;3.62;;;2.45;;
62933;SDS011;49038;47.600;19.242;2023-05-16T14:18:00;4.07;;;2.67;;
62933;SDS011;49038;47.600;19.242;2023-05-16T14:21:03;4.50;;;2.15;;
62933;SDS011;49038;47.600;19.242;2023-05-16T14:24:05;1.58;;;1.45;;
62933;SDS011;49038;47.600;19.242;2023-05-16T14:27:08;3.17;;;2.10;;
62933;SDS011;49038;47.600;19.242;2023-05-16T14:30:11;1.95;;;1.80;;
62933;SDS011;49038;47.600;19.242;2023-05-16T14:33:14;3.28;;;1.87;;
62933;SDS011;49038;47.600;19.242;2023-05-16T14:36:16;2.75;;;2.30;;
62933;SDS011;49038;47.600;19.242;2023-05-16T14:39:18;6.78;;;3.03;;
62933;SDS011;49038;47.600;19.242;2023-05-16T14:42:21;4.53;;;2.80;;
62933;SDS011;49038;47.600;19.242;2023-05-16T14:45:23;9.25;;;2.97;;
62933;SDS011;49038;47.600;19.242;2023-05-16T14:48:26;7.40;;;2.50;;
62933;SDS011;49038;47.600;19.242;2023-05-16T14:51:28;3.58;;;2.33;;
62933;SDS011;49038;47.600;19.242;2023-05-16T14:54:30;4.43;;;2.65;;
62933;SDS011;49038;47.600;19.242;2023-05-16T14:57:33;6.10;;;2.80;;
62933;SDS011;49038;47.600;19.242;2023-05-16T15:00:35;4.25;;;1.60;;
62933;SDS011;49038;47.600;19.242;2023-05-16T15:03:37;8.15;;;2.65;;
62933;SDS011;49038;47.600;19.242;2023-05-16T15:06:43;7.35;;;2.70;;
62933;SDS011;49038;47.600;19.242;2023-05-16T15:09:45;4.47;;;2.60;;
62933;SDS011;49038;47.600;19.242;2023-05-16T15:12:47;4.43;;;2.30;;
62933;SDS011;49038;47.600;19.242;2023-05-16T15:15:50;3.95;;;3.12;;
62933;SDS011;49038;47.600;19.242;2023-05-16T15:18:52;5.25;;;3.17;;
62933;SDS011;49038;47.600;19.242;2023-05-16T15:21:54;3.35;;;2.33;;
62933;SDS011;49038;47.600;19.242;2023-05-16T15:24:57;6.10;;;2.78;;
62933;SDS011;49038;47.600;19.242;2023-05-16T15:27:59;4.53;;;2.67;;
62933;SDS011;49038;47.600;19.242;2023-05-16T15:31:02;27.10;;;3.75;;
62933;SDS011;49038;47.600;19.242;2023-05-16T15:34:05;3.50;;;2.40;;
62933;SDS011;49038;47.600;19.242;2023-05-16T15:37:09;3.08;;;2.62;;
62933;SDS011;49038;47.600;19.242;2023-05-16T15:40:11;4.10;;;2.70;;
62933;SDS011;49038;47.600;19.242;2023-05-16T15:43:14;5.75;;;2.37;;
62933;SDS011;49038;47.600;19.242;2023-05-16T15:46:16;3.78;;;2.47;;
62933;SDS011;49038;47.600;19.242;2023-05-16T15:49:18;3.60;;;2.87;;
62933;SDS011;49038;47.600;19.242;2023-05-16T15:52:22;3.70;;;2.87;;
62933;SDS011;49038;47.600;19.242;2023-05-16T15:55:24;9.30;;;2.83;;
62933;SDS011;49038;47.600;19.242;2023-05-16T15:58:26;4.45;;;2.65;;
62933;SDS011;49038;47.600;19.242;2023-05-16T16:01:29;6.45;;;3.22;;
62933;SDS011;49038;47.600;19.242;2023-05-16T16:04:31;5.20;;;2.72;;
62933;SDS011;49038;47.600;19.242;2023-05-16T16:07:33;6.50;;;3.47;;
62933;SDS011;49038;47.600;19.242;2023-05-16T16:10:35;6.40;;;2.55;;
62933;SDS011;49038;47.600;19.242;2023-05-16T16:13:38;5.32;;;3.47;;
62933;SDS011;49038;47.600;19.242;2023-05-16T16:16:40;9.88;;;2.90;;
62933;SDS011;49038;47.600;19.242;2023-05-16T16:19:42;6.70;;;2.70;;
62933;SDS011;49038;47.600;19.242;2023-05-16T16:22:45;4.53;;;2.50;;
62933;SDS011;49038;47.600;19.242;2023-05-16T16:25:47;4.35;;;2.42;;
62933;SDS011;49038;47.600;19.242;2023-05-16T16:28:50;4.50;;;3.12;;
62933;SDS011;49038;47.600;19.242;2023-05-16T16:31:52;8.50;;;3.58;;
62933;SDS011;49038;47.600;19.242;2023-05-16T16:34:55;9.43;;;2.90;;
62933;SDS011;49038;47.600;19.242;2023-05-16T16:37:57;5.47;;;2.87;;
62933;SDS011;49038;47.600;19.242;2023-05-16T16:41:08;5.28;;;3.62;;
62933;SDS011;49038;47.600;19.242;2023-05-16T16:44:11;3.67;;;2.42;;
62933;SDS011;49038;47.600;19.242;2023-05-16T16:47:13;10.40;;;3.60;;
62933;SDS011;49038;47.600;19.242;2023-05-16T16:50:16;8.88;;;2.53;;
62933;SDS011;49038;47.600;19.242;2023-05-16T16:53:18;5.10;;;2.50;;
62933;SDS011;49038;47.600;19.242;2023-05-16T16:56:21;3.58;;;2.70;;
62933;SDS011;49038;47.600;19.242;2023-05-16T16:59:23;4.00;;;2.67;;
62933;SDS011;49038;47.600;19.242;2023-05-16T17:02:26;7.22;;;3.30;;
62933;SDS011;49038;47.600;19.242;2023-05-16T17:05:28;5.00;;;2.78;;
62933;SDS011;49038;47.600;19.242;2023-05-16T17:08:31;4.28;;;3.05;;
62933;SDS011;49038;47.600;19.242;2023-05-16T17:11:33;6.57;;;2.62;;
62933;SDS011;49038;47.600;19.242;2023-05-16T17:14:37;2.85;;;2.60;;
62933;SDS011;49038;47.600;19.242;2023-05-16T17:17:40;4.68;;;3.17;;
62933;SDS011;49038;47.600;19.242;2023-05-16T17:20:42;5.95;;;3.15;;
62933;SDS011;49038;47.600;19.242;2023-05-16T17:23:45;5.75;;;3.72;;
62933;SDS011;49038;47.600;19.242;2023-05-16T17:26:47;5.75;;;3.67;;
62933;SDS011;49038;47.600;19.242;2023-05-16T17:29:49;6.15;;;3.92;;
62933;SDS011;49038;47.600;19.242;2023-05-16T17:32:52;9.77;;;4.57;;
62933;SDS011;49038;47.600;19.242;2023-05-16T17:35:55;11.80;;;4.95;;
62933;SDS011;49038;47.600;19.242;2023-05-16T17:38:57;7.72;;;4.47;;
62933;SDS011;49038;47.600;19.242;2023-05-16T17:42:00;7.60;;;4.07;;
62933;SDS011;49038;47.600;19.242;2023-05-16T17:45:02;4.65;;;3.10;;
62933;SDS011;49038;47.600;19.242;2023-05-16T17:48:05;6.62;;;4.40;;
62933;SDS011;49038;47.600;19.242;2023-05-16T17:51:08;7.03;;;4.25;;
62933;SDS011;49038;47.600;19.242;2023-05-16T17:54:10;7.50;;;4.65;;
62933;SDS011;49038;47.600;19.242;2023-05-16T17:57:13;7.15;;;4.12;;
62933;SDS011;49038;47.600;19.242;2023-05-16T18:00:16;7.15;;;4.87;;
62933;SDS011;49038;47.600;19.242;2023-05-16T18:03:18;7.15;;;4.12;;
62933;SDS011;49038;47.600;19.242;2023-05-16T18:06:21;6.43;;;4.30;;
62933;SDS011;49038;47.600;19.242;2023-05-16T18:09:23;6.85;;;3.70;;
62933;SDS011;49038;47.600;19.242;2023-05-16T18:12:26;6.65;;;3.67;;
62933;SDS011;49038;47.600;19.242;2023-05-16T18:15:28;5.35;;;4.03;;
62933;SDS011;49038;47.600;19.242;2023-05-16T18:18:31;9.25;;;3.97;;
62933;SDS011;49038;47.600;19.242;2023-05-16T18:21:33;8.55;;;3.65;;
62933;SDS011;49038;47.600;19.242;2023-05-16T18:24:37;6.53;;;4.20;;